Time;durP1;ratioP1;P1;durP2;ratioP2;P2;SDS_P1;SDS_P2;PMS_P1;PMS_P2;Temp;Humidity;BMP_temperature;BMP_pressure;BME280_temperature;BME280_humidity;BME280_pressure;Samples;Min_cycle;Max_cycle;Signal;HPM_P1;HPM_P2
2023/06/28 00:01:17;;;;;;;1.55;1.30;;;17.60;99.90;;;;;;5068788;28;20013;-47
2023/06/28 00:03:43;;;;;;;2.15;1.63;;;17.10;99.90;;;;;;5060523;28;20116;-47
2023/06/28 00:06:09;;;;;;;1.75;1.52;;;16.80;99.90;;;;;;5068127;28;20101;-47
2023/06/28 00:08:34;;;;;;;4.15;1.30;;;16.50;99.90;;;;;;5059964;28;20396;-46
2023/06/28 00:11:00;;;;;;;5.72;1.92;;;16.40;99.90;;;;;;5044696;28;20047;-47
2023/06/28 00:13:26;;;;;;;3.63;1.90;;;16.50;99.90;;;;;;5059513;28;20066;-47
2023/06/28 00:15:51;;;;;;;3.28;1.42;;;16.90;99.90;;;;;;5053255;28;20495;-48
2023/06/28 00:18:17;;;;;;;4.97;1.75;;;17.10;99.90;;;;;;5043583;28;20090;-47
2023/06/28 00:20:44;;;;;;;2.60;1.63;;;17.50;99.90;;;;;;5038793;28;20065;-47
2023/06/28 00:23:11;;;;;;;5.28;2.50;;;17.60;99.90;;;;;;5047091;28;20143;-47
2023/06/28 00:25:36;;;;;;;3.13;1.67;;;17.70;99.90;;;;;;5040375;28;20559;-47
2023/06/28 00:28:03;;;;;;;2.25;1.50;;;17.80;99.90;;;;;;5043524;28;20128;-47
2023/06/28 00:30:30;;;;;;;2.80;1.52;;;18.00;99.90;;;;;;5011823;28;20044;-47
2023/06/28 00:32:55;;;;;;;2.22;1.42;;;18.10;99.90;;;;;;5040625;28;20037;-47
2023/06/28 00:35:21;;;;;;;3.03;1.95;;;18.20;99.90;;;;;;5037510;28;20083;-48
2023/06/28 00:37:47;;;;;;;3.58;1.77;;;18.30;99.90;;;;;;5043984;28;20033;-47
2023/06/28 00:40:12;;;;;;;3.42;1.70;;;18.40;99.90;;;;;;5044528;28;20084;-47
2023/06/28 00:42:38;;;;;;;7.28;1.70;;;18.40;99.90;;;;;;5025102;28;20057;-47
2023/06/28 00:45:04;;;;;;;6.80;2.10;;;18.40;99.90;;;;;;5046413;28;20488;-47
2023/06/28 00:47:31;;;;;;;3.70;1.80;;;18.40;99.90;;;;;;4996424;28;20064;-48
2023/06/28 00:49:58;;;;;;;2.72;1.50;;;18.40;99.90;;;;;;5062153;28;20088;-47
2023/06/28 00:52:24;;;;;;;4.65;1.52;;;18.40;99.90;;;;;;5062675;28;20537;-47
2023/06/28 00:54:50;;;;;;;2.10;1.33;;;18.40;99.90;;;;;;5041438;28;20037;-47
2023/06/28 00:57:16;;;;;;;2.33;1.55;;;18.40;99.90;;;;;;5069727;28;20033;-47
2023/06/28 00:59:43;;;;;;;3.30;2.33;;;18.40;99.90;;;;;;5044851;28;20167;-47
2023/06/28 01:02:10;;;;;;;2.28;1.70;;;18.40;99.90;;;;;;5062825;28;20035;-47
2023/06/28 01:04:37;;;;;;;2.20;1.45;;;18.40;99.90;;;;;;5066192;28;20041;-47
2023/06/28 01:07:04;;;;;;;6.45;1.75;;;18.40;99.90;;;;;;5070577;28;20060;-47
2023/06/28 01:09:30;;;;;;;2.25;1.30;;;18.40;99.90;;;;;;5064319;28;20033;-47
2023/06/28 01:11:57;;;;;;;1.52;1.30;;;18.40;99.90;;;;;;5048265;28;20037;-46
2023/06/28 01:14:24;;;;;;;1.67;1.30;;;18.10;99.90;;;;;;5061023;28;20024;-48
2023/06/28 01:16:55;;;;;;;2.13;1.40;;;18.10;99.90;;;;;;5067138;28;20033;-47
2023/06/28 01:19:25;;;;;;;2.20;1.60;;;18.20;99.90;;;;;;5064229;28;20021;-47
2023/06/28 01:22:00;;;;;;;2.08;1.50;;;18.20;99.90;;;;;;5069045;28;20040;-47
2023/06/28 01:24:26;;;;;;;2.42;1.20;;;17.70;99.90;;;;;;5058701;28;20028;-49
2023/06/28 01:26:53;;;;;;;4.43;1.67;;;17.30;99.90;;;;;;5056737;28;20021;-47
2023/06/28 01:29:24;;;;;;;4.88;1.90;;;17.60;99.90;;;;;;5071093;28;20056;-47
2023/06/28 01:31:54;;;;;;;2.25;1.83;;;17.90;99.90;;;;;;5064428;28;20028;-46
2023/06/28 01:34:22;;;;;;;4.97;1.33;;;18.00;99.90;;;;;;5062640;28;20095;-47
2023/06/28 01:36:49;;;;;;;3.38;1.55;;;17.90;99.90;;;;;;5062009;28;20037;-47
2023/06/28 01:39:17;;;;;;;3.45;1.60;;;18.00;99.90;;;;;;5062573;28;20494;-47
2023/06/28 01:41:44;;;;;;;2.83;1.40;;;18.00;99.90;;;;;;5058669;28;20392;-47
2023/06/28 01:44:10;;;;;;;3.60;1.48;;;18.00;99.90;;;;;;5060667;28;20044;-47
2023/06/28 01:46:36;;;;;;;2.55;1.60;;;18.00;99.90;;;;;;5065631;28;20029;-47
2023/06/28 01:49:02;;;;;;;2.95;1.58;;;18.10;99.90;;;;;;5059461;28;20147;-47
2023/06/28 01:51:28;;;;;;;2.35;1.88;;;18.20;99.90;;;;;;5051579;28;20033;-47
2023/06/28 01:53:55;;;;;;;3.67;1.73;;;18.30;99.90;;;;;;5071041;28;20029;-47
2023/06/28 01:56:20;;;;;;;3.30;1.73;;;18.40;99.90;;;;;;5060339;28;20028;-47
2023/06/28 01:58:46;;;;;;;7.55;1.70;;;18.50;99.90;;;;;;5040853;28;20033;-47
2023/06/28 02:01:13;;;;;;;3.03;1.60;;;18.50;99.90;;;;;;5056508;28;20078;-47
2023/06/28 02:03:38;;;;;;;2.85;1.63;;;18.70;99.90;;;;;;5013469;28;20033;-48
2023/06/28 02:06:04;;;;;;;2.65;2.03;;;18.60;99.90;;;;;;5070524;28;20379;-47
2023/06/28 02:08:30;;;;;;;2.08;1.40;;;18.60;99.90;;;;;;5060705;28;20055;-47
2023/06/28 02:10:55;;;;;;;2.20;1.63;;;18.60;99.90;;;;;;5068686;28;20107;-47
2023/06/28 02:13:21;;;;;;;2.58;1.75;;;18.60;99.90;;;;;;5050709;28;20115;-47
2023/06/28 02:15:47;;;;;;;2.55;1.90;;;18.50;99.90;;;;;;5057757;28;20021;-47
2023/06/28 02:18:16;;;;;;;2.60;2.00;;;18.60;99.90;;;;;;5067866;28;20033;-47
2023/06/28 02:20:43;;;;;;;3.05;1.60;;;18.50;99.90;;;;;;5057472;28;20033;-47
2023/06/28 02:23:09;;;;;;;3.88;1.77;;;18.60;99.90;;;;;;5060088;28;20112;-47
2023/06/28 02:25:35;;;;;;;3.28;2.28;;;18.70;99.90;;;;;;5059517;28;20107;-47
2023/06/28 02:28:01;;;;;;;5.82;2.20;;;18.70;99.90;;;;;;5064507;28;20500;-47
2023/06/28 02:30:26;;;;;;;3.40;2.13;;;18.50;99.90;;;;;;5029372;28;20044;-49
2023/06/28 02:32:52;;;;;;;2.63;2.00;;;18.40;99.90;;;;;;5069066;28;20013;-47
2023/06/28 02:35:18;;;;;;;7.32;2.05;;;18.40;99.90;;;;;;5061777;28;20479;-46
2023/06/28 02:37:43;;;;;;;3.30;1.80;;;18.50;99.90;;;;;;5063305;28;20017;-47
2023/06/28 02:40:10;;;;;;;3.17;2.05;;;18.60;99.90;;;;;;5069017;28;20052;-47
2023/06/28 02:42:35;;;;;;;3.28;1.65;;;18.70;99.90;;;;;;5037972;28;20091;-49
2023/06/28 02:45:01;;;;;;;7.00;1.70;;;18.80;99.90;;;;;;5064827;28;20029;-47
2023/06/28 02:47:27;;;;;;;5.65;1.85;;;18.80;99.90;;;;;;5063990;28;20041;-47
2023/06/28 02:49:52;;;;;;;2.80;1.92;;;18.90;99.90;;;;;;5066349;28;20036;-48
2023/06/28 02:52:18;;;;;;;3.17;1.98;;;18.80;99.90;;;;;;5061025;28;20063;-47
2023/06/28 02:54:44;;;;;;;3.70;1.92;;;18.80;99.90;;;;;;5041673;28;20400;-47
2023/06/28 02:57:10;;;;;;;6.32;2.33;;;18.80;99.90;;;;;;5050111;28;20036;-47
2023/06/28 02:59:35;;;;;;;4.50;2.05;;;18.70;99.90;;;;;;5044059;28;20068;-46
2023/06/28 03:02:05;;;;;;;3.17;1.63;;;18.70;99.90;;;;;;5060643;28;20049;-47
2023/06/28 03:04:30;;;;;;;2.67;1.67;;;18.60;99.90;;;;;;5047149;28;20492;-47
2023/06/28 03:06:56;;;;;;;2.97;1.50;;;18.60;99.90;;;;;;5068104;28;20075;-47
2023/06/28 03:09:22;;;;;;;4.60;1.88;;;18.70;99.90;;;;;;5046749;28;20045;-47
2023/06/28 03:11:48;;;;;;;4.57;2.00;;;18.80;99.90;;;;;;5062758;28;20033;-47
2023/06/28 03:14:13;;;;;;;3.80;2.42;;;18.70;99.90;;;;;;5064006;28;20029;-47
2023/06/28 03:16:39;;;;;;;6.00;2.45;;;18.70;99.90;;;;;;5065442;28;20384;-47
2023/06/28 03:19:07;;;;;;;3.28;1.73;;;18.80;99.90;;;;;;5047460;28;20033;-46
2023/06/28 03:21:32;;;;;;;3.63;2.70;;;18.80;99.90;;;;;;5062796;28;20068;-47
2023/06/28 03:23:58;;;;;;;7.72;2.20;;;18.80;99.90;;;;;;5044389;28;20079;-47
2023/06/28 03:26:24;;;;;;;3.40;2.15;;;18.70;99.90;;;;;;5070435;28;20433;-47
2023/06/28 03:28:50;;;;;;;3.17;2.22;;;18.80;99.90;;;;;;5063452;28;20041;-47
2023/06/28 03:31:15;;;;;;;5.70;2.20;;;18.80;99.90;;;;;;5064198;28;20032;-47
2023/06/28 03:33:41;;;;;;;5.18;1.85;;;18.80;99.90;;;;;;5069329;28;20032;-47
2023/06/28 03:36:07;;;;;;;4.13;2.00;;;18.90;99.90;;;;;;5069839;28;20032;-47
2023/06/28 03:38:33;;;;;;;5.53;2.40;;;18.90;99.90;;;;;;5063035;28;20053;-48
2023/06/28 03:40:58;;;;;;;3.47;1.83;;;18.90;99.90;;;;;;5068245;28;20094;-47
2023/06/28 03:43:24;;;;;;;4.30;2.20;;;18.90;99.90;;;;;;5043986;28;20036;-47
2023/06/28 03:45:50;;;;;;;4.63;2.55;;;18.90;99.90;;;;;;5071423;28;20115;-47
2023/06/28 03:48:18;;;;;;;8.13;2.67;;;18.90;99.90;;;;;;5067403;28;20039;-47
2023/06/28 03:50:44;;;;;;;2.47;1.75;;;19.00;99.90;;;;;;5066337;28;20476;-47
2023/06/28 03:53:09;;;;;;;3.15;1.98;;;19.00;99.90;;;;;;5067563;28;20052;-47
2023/06/28 03:55:36;;;;;;;3.33;2.13;;;19.00;99.90;;;;;;5061687;28;20391;-47
2023/06/28 03:58:02;;;;;;;3.58;2.00;;;19.10;99.90;;;;;;5050029;28;21262;-47
2023/06/28 04:00:28;;;;;;;6.22;2.10;;;19.00;99.90;;;;;;5050382;28;20071;-47
2023/06/28 04:02:53;;;;;;;3.40;2.10;;;19.00;99.90;;;;;;5050742;28;20060;-47
2023/06/28 04:05:19;;;;;;;3.75;2.15;;;19.10;99.90;;;;;;5067372;28;20111;-47
2023/06/28 04:07:57;;;;;;;5.72;2.20;;;19.20;99.90;;;;;;5062533;28;20492;-47
2023/06/28 04:10:25;;;;;;;4.40;1.90;;;19.00;99.90;;;;;;5067145;28;20060;-46
2023/06/28 04:12:51;;;;;;;6.10;2.30;;;19.00;99.90;;;;;;5072108;28;20060;-47
2023/06/28 04:15:16;;;;;;;5.53;2.15;;;19.00;99.90;;;;;;5061404;28;20078;-47
2023/06/28 04:17:42;;;;;;;3.33;2.25;;;19.00;99.90;;;;;;5036290;28;20045;-47
2023/06/28 04:20:08;;;;;;;13.20;2.33;;;19.00;99.90;;;;;;5071470;28;20020;-46
2023/06/28 04:22:34;;;;;;;4.45;2.42;;;19.00;99.90;;;;;;5069131;28;20036;-47
2023/06/28 04:25:00;;;;;;;5.55;2.47;;;19.10;99.90;;;;;;5059551;28;20040;-47
2023/06/28 04:27:26;;;;;;;5.65;3.58;;;19.20;99.90;;;;;;5071487;28;20044;-48
2023/06/28 04:29:52;;;;;;;4.68;2.65;;;19.20;99.90;;;;;;5071490;28;20035;-47
2023/06/28 04:32:24;;;;;;;8.38;2.00;;;19.20;99.90;;;;;;4986490;28;20041;-47
2023/06/28 04:34:53;;;;;;;5.50;2.35;;;19.20;99.90;;;;;;5071614;28;20028;-47
2023/06/28 04:37:27;;;;;;;4.35;2.30;;;19.30;99.90;;;;;;5064945;28;20028;-49
2023/06/28 04:39:55;;;;;;;3.30;2.10;;;19.30;99.90;;;;;;5065681;28;20053;-47
2023/06/28 04:42:21;;;;;;;6.75;2.20;;;19.20;99.90;;;;;;5024861;28;20056;-48
2023/06/28 04:44:47;;;;;;;4.30;1.92;;;19.20;99.90;;;;;;5061489;28;20040;-47
2023/06/28 04:47:15;;;;;;;3.97;2.10;;;19.30;99.90;;;;;;5066367;28;20029;-49
2023/06/28 04:49:49;;;;;;;2.90;1.95;;;19.20;99.90;;;;;;5066335;28;20041;-47
2023/06/28 04:52:19;;;;;;;5.13;2.25;;;19.20;99.90;;;;;;5063104;28;20028;-47
2023/06/28 04:54:48;;;;;;;3.38;2.10;;;19.20;99.90;;;;;;5062205;28;20377;-47
2023/06/28 04:57:15;;;;;;;4.72;2.00;;;19.20;99.90;;;;;;5063271;28;20087;-47
2023/06/28 04:59:41;;;;;;;2.47;1.80;;;19.20;99.90;;;;;;5025552;28;20044;-47
2023/06/28 05:02:07;;;;;;;4.10;2.20;;;19.20;99.90;;;;;;5026373;28;20061;-46
2023/06/28 05:04:33;;;;;;;4.88;2.00;;;19.00;99.90;;;;;;5043275;28;20117;-47
2023/06/28 05:07:03;;;;;;;9.80;2.63;;;19.30;99.90;;;;;;5043125;28;20060;-47
2023/06/28 05:09:32;;;;;;;3.03;2.03;;;19.40;99.90;;;;;;5043611;28;20037;-46
2023/06/28 05:11:59;;;;;;;6.05;2.30;;;19.30;99.90;;;;;;5036975;28;20029;-48
2023/06/28 05:14:25;;;;;;;3.75;2.13;;;19.30;99.90;;;;;;5027789;28;20524;-46
2023/06/28 05:16:51;;;;;;;2.90;2.10;;;19.10;99.90;;;;;;5045367;28;20065;-46
2023/06/28 05:19:18;;;;;;;4.07;2.38;;;19.10;99.90;;;;;;5015204;28;20546;-47
2023/06/28 05:21:43;;;;;;;3.58;2.30;;;19.10;99.90;;;;;;5041408;28;20038;-46
2023/06/28 05:24:09;;;;;;;4.82;2.67;;;19.20;99.90;;;;;;5043125;28;20032;-46
2023/06/28 05:26:35;;;;;;;3.67;2.30;;;19.30;99.90;;;;;;5045499;28;20057;-47
2023/06/28 05:29:00;;;;;;;4.93;2.60;;;19.40;99.90;;;;;;5035430;28;20097;-47
2023/06/28 05:31:26;;;;;;;5.13;2.58;;;19.40;99.90;;;;;;5056981;28;20091;-46
2023/06/28 05:33:52;;;;;;;3.78;2.28;;;19.40;99.90;;;;;;5060650;28;20071;-47
2023/06/28 05:36:22;;;;;;;5.57;2.65;;;19.30;99.90;;;;;;5065462;28;20036;-46
2023/06/28 05:38:48;;;;;;;5.80;2.85;;;19.40;99.90;;;;;;5061219;28;20099;-47
2023/06/28 05:41:16;;;;;;;3.42;2.70;;;19.40;99.90;;;;;;5061928;28;20024;-47
2023/06/28 05:43:43;;;;;;;3.80;2.38;;;19.40;99.90;;;;;;5066993;28;20028;-47
2023/06/28 05:46:09;;;;;;;2.83;2.10;;;19.40;99.90;;;;;;5049750;28;20028;-47
2023/06/28 05:48:35;;;;;;;3.47;2.25;;;19.40;99.90;;;;;;5059865;28;20081;-47
2023/06/28 05:51:01;;;;;;;4.32;2.30;;;19.40;99.90;;;;;;5062795;28;20119;-47
2023/06/28 05:53:29;;;;;;;3.85;2.58;;;19.40;99.90;;;;;;5064767;28;20024;-47
2023/06/28 05:55:55;;;;;;;3.53;2.75;;;19.40;99.90;;;;;;5057264;28;20029;-46
2023/06/28 05:58:21;;;;;;;3.88;2.55;;;19.30;99.90;;;;;;5063045;28;20460;-47
2023/06/28 06:00:47;;;;;;;2.85;2.20;;;19.30;99.90;;;;;;5063718;28;20028;-47
2023/06/28 06:03:13;;;;;;;2.40;1.90;;;19.40;99.90;;;;;;5070750;28;20027;-47
2023/06/28 06:05:38;;;;;;;3.78;2.67;;;19.40;99.90;;;;;;5068638;28;20479;-47
2023/06/28 06:08:05;;;;;;;5.13;2.63;;;19.30;99.90;;;;;;5064987;28;20035;-47
2023/06/28 06:10:31;;;;;;;4.40;2.67;;;19.30;99.90;;;;;;5058108;28;20036;-46
2023/06/28 06:12:57;;;;;;;3.67;2.58;;;19.40;99.90;;;;;;5060679;28;20047;-47
2023/06/28 06:15:23;;;;;;;6.32;2.50;;;19.40;99.90;;;;;;5063610;28;20032;-47
2023/06/28 06:17:50;;;;;;;4.07;2.25;;;19.40;99.90;;;;;;5068026;28;20028;-46
2023/06/28 06:20:16;;;;;;;4.35;2.50;;;19.40;99.90;;;;;;5062767;28;20031;-47
2023/06/28 06:22:43;;;;;;;3.58;2.55;;;19.40;99.90;;;;;;5066651;28;20071;-47
2023/06/28 06:25:09;;;;;;;4.35;2.25;;;19.40;99.90;;;;;;5063619;28;20460;-47
2023/06/28 06:27:35;;;;;;;3.38;2.50;;;19.40;99.90;;;;;;5069082;28;20115;-47
2023/06/28 06:30:01;;;;;;;3.70;2.92;;;19.30;99.90;;;;;;5056333;28;20047;-46
2023/06/28 06:32:27;;;;;;;3.40;2.50;;;19.30;99.90;;;;;;5063064;28;20498;-46
2023/06/28 06:34:53;;;;;;;4.43;2.65;;;19.30;99.90;;;;;;5027430;28;20029;-47
2023/06/28 06:37:20;;;;;;;4.32;2.58;;;19.30;99.90;;;;;;5044110;28;20105;-47
2023/06/28 06:39:46;;;;;;;3.75;2.30;;;19.30;99.90;;;;;;5063501;28;20560;-47
2023/06/28 06:42:12;;;;;;;4.03;2.50;;;19.20;99.90;;;;;;5065958;28;20041;-47
2023/06/28 06:44:37;;;;;;;3.95;2.58;;;19.10;99.90;;;;;;5041960;28;20063;-47
2023/06/28 06:47:03;;;;;;;4.10;2.70;;;19.10;99.90;;;;;;5046165;28;20080;-47
2023/06/28 06:49:29;;;;;;;5.55;2.72;;;19.10;99.90;;;;;;5057000;28;20041;-47
2023/06/28 06:51:55;;;;;;;4.40;2.67;;;19.20;99.90;;;;;;5071495;28;20037;-47
2023/06/28 06:54:21;;;;;;;9.45;2.65;;;19.20;99.90;;;;;;5057449;28;20056;-47
2023/06/28 06:56:47;;;;;;;3.63;2.53;;;19.10;99.90;;;;;;5072617;28;20032;-47
2023/06/28 06:59:12;;;;;;;4.07;2.50;;;19.20;99.90;;;;;;5041779;28;20127;-46
2023/06/28 07:55:16;;;;;;;;;;;19.00;99.90;;;;;;5123120;27;20392;-48
2023/06/28 07:57:41;;;;;;;;;;;19.10;99.90;;;;;;5106459;28;19912;-48
2023/06/28 08:00:09;;;;;;;;;;;19.00;99.90;;;;;;5102077;28;19912;-51
2023/06/28 08:02:35;;;;;;;;;;;19.00;99.90;;;;;;5090089;28;19908;-50
2023/06/28 08:05:00;;;;;;;5.20;3.72;;;19.00;99.90;;;;;;5099984;28;19951;-48
2023/06/28 08:07:26;;;;;;;5.43;4.00;;;19.00;99.90;;;;;;5081196;28;20082;-47
2023/06/28 08:09:52;;;;;;;5.45;3.53;;;19.10;99.90;;;;;;5050993;28;20045;-47
2023/06/28 08:12:18;;;;;;;6.90;4.13;;;19.10;99.90;;;;;;5085037;28;20024;-48
2023/06/28 08:14:43;;;;;;;7.50;4.32;;;19.20;99.90;;;;;;5019774;28;20046;-50
2023/06/28 08:17:09;;;;;;;7.47;4.65;;;19.30;99.90;;;;;;5084437;28;20072;-49
2023/06/28 08:19:35;;;;;;;6.97;4.82;;;19.40;99.90;;;;;;5052740;28;20078;-48
2023/06/28 08:22:03;;;;;;;5.65;4.38;;;19.40;99.90;;;;;;5079808;28;20056;-48
2023/06/28 08:24:29;;;;;;;5.65;4.32;;;19.40;99.90;;;;;;5082443;28;20539;-47
2023/06/28 08:26:55;;;;;;;7.13;5.05;;;19.40;99.90;;;;;;5084667;28;20039;-47
2023/06/28 08:29:21;;;;;;;5.65;4.30;;;19.40;99.90;;;;;;5081092;28;20052;-48
2023/06/28 08:31:47;;;;;;;6.50;4.53;;;19.40;99.90;;;;;;5078033;28;20056;-48
2023/06/28 08:34:13;;;;;;;7.18;4.88;;;19.50;99.90;;;;;;5083728;28;20478;-48
2023/06/28 08:36:39;;;;;;;6.03;4.60;;;19.50;99.90;;;;;;5092855;28;20079;-48
2023/06/28 08:39:04;;;;;;;7.47;4.90;;;19.60;99.90;;;;;;5108102;28;20596;-48
2023/06/28 08:41:31;;;;;;;8.88;5.95;;;19.50;99.90;;;;;;5103300;27;20077;-48
2023/06/28 08:44:01;;;;;;;7.68;5.90;;;19.50;99.90;;;;;;5104194;28;20036;-48
2023/06/28 08:46:29;;;;;;;7.65;5.82;;;19.40;99.90;;;;;;5109731;28;20059;-48
2023/06/28 08:48:55;;;;;;;7.72;5.88;;;19.40;99.90;;;;;;5107492;28;20032;-48
2023/06/28 08:51:22;;;;;;;8.85;6.47;;;19.40;99.90;;;;;;5105630;28;20039;-48
2023/06/28 08:53:48;;;;;;;10.98;6.60;;;19.50;99.90;;;;;;5086529;28;20105;-49
2023/06/28 08:56:15;;;;;;;10.05;6.78;;;19.40;99.90;;;;;;5072450;28;20044;-48
2023/06/28 08:58:41;;;;;;;11.45;7.05;;;19.50;99.90;;;;;;5089519;28;20353;-48
2023/06/28 09:01:08;;;;;;;12.13;6.75;;;19.40;99.90;;;;;;5092473;28;20496;-48
2023/06/28 09:03:39;;;;;;;10.60;6.43;;;19.40;99.90;;;;;;5092643;28;20024;-48
2023/06/28 09:06:05;;;;;;;8.23;5.13;;;19.40;99.90;;;;;;5092464;28;20060;-48
2023/06/28 09:22:10;;;;;;;10.95;4.40;;;19.30;99.90;;;;;;5145518;27;20107;-47
2023/06/28 09:24:37;;;;;;;7.38;3.92;;;19.40;99.90;;;;;;5125027;27;20031;-47
2023/06/28 09:27:05;;;;;;;8.98;3.60;;;19.40;99.90;;;;;;5133661;27;20028;-46
2023/06/28 09:29:31;;;;;;;6.45;4.13;;;19.40;99.90;;;;;;5124484;27;20027;-46
2023/06/28 09:31:57;;;;;;;5.03;3.60;;;19.30;99.90;;;;;;5133454;27;20038;-47
2023/06/28 09:34:23;;;;;;;6.57;3.95;;;19.40;99.90;;;;;;5130245;27;20019;-48
2023/06/28 09:36:53;;;;;;;8.55;4.43;;;19.30;99.90;;;;;;5122315;27;20036;-47
2023/06/28 09:39:20;;;;;;;7.38;3.13;;;19.40;99.90;;;;;;5129679;27;20078;-47
2023/06/28 09:41:45;;;;;;;5.03;3.20;;;19.40;99.90;;;;;;5135720;27;20508;-46
2023/06/28 09:44:12;;;;;;;4.53;3.03;;;19.40;99.90;;;;;;5121670;27;20040;-46
2023/06/28 09:46:47;;;;;;;4.57;2.95;;;19.30;99.90;;;;;;5133064;27;20034;-46
2023/06/28 09:49:24;;;;;;;5.68;3.10;;;19.20;99.90;;;;;;5134756;27;20482;-48
2023/06/28 09:52:03;;;;;;;4.03;2.72;;;19.20;99.90;;;;;;5074928;28;20067;-46
2023/06/28 09:54:32;;;;;;;5.22;2.90;;;19.10;99.90;;;;;;5059487;28;20039;-46
2023/06/28 09:57:01;;;;;;;4.68;3.20;;;19.00;99.90;;;;;;5129625;27;20028;-46
2023/06/28 09:59:34;;;;;;;4.55;2.92;;;19.10;99.90;;;;;;5119910;27;20037;-47
2023/06/28 10:02:04;;;;;;;6.55;3.00;;;19.10;99.90;;;;;;5097592;28;20490;-47
2023/06/28 10:04:32;;;;;;;4.65;3.42;;;19.20;99.90;;;;;;5113893;27;20039;-46
2023/06/28 10:07:00;;;;;;;7.32;3.05;;;19.30;99.90;;;;;;5108936;28;20070;-47
2023/06/28 10:09:35;;;;;;;8.07;4.13;;;19.40;99.90;;;;;;5135350;27;20086;-47
2023/06/28 10:12:05;;;;;;;6.78;3.67;;;19.40;99.90;;;;;;5129945;27;20379;-46
2023/06/28 10:14:36;;;;;;;6.53;3.65;;;19.50;99.90;;;;;;5141680;27;20062;-46
2023/06/28 10:17:03;;;;;;;3.95;3.30;;;19.60;99.90;;;;;;5126245;27;20110;-47
2023/06/28 10:19:29;;;;;;;8.25;3.72;;;19.80;99.90;;;;;;5102434;28;20031;-47
2023/06/28 10:21:56;;;;;;;5.40;3.38;;;19.80;99.90;;;;;;5101660;28;20070;-47
2023/06/28 10:24:23;;;;;;;5.63;3.50;;;19.90;99.90;;;;;;5113936;27;20035;-46
2023/06/28 10:26:49;;;;;;;6.50;3.67;;;20.10;99.90;;;;;;5117065;27;20596;-47
2023/06/28 10:29:16;;;;;;;7.07;3.75;;;20.10;99.90;;;;;;5116012;27;20032;-46
2023/06/28 10:31:43;;;;;;;5.13;3.58;;;20.20;99.90;;;;;;5116299;27;20036;-46
2023/06/28 10:34:09;;;;;;;4.63;2.95;;;20.20;99.90;;;;;;5121078;27;20059;-47
2023/06/28 10:36:35;;;;;;;5.28;3.15;;;20.40;99.90;;;;;;5088546;28;20063;-47
2023/06/28 10:39:01;;;;;;;8.10;3.10;;;20.60;99.90;;;;;;5120223;27;20485;-48
2023/06/28 10:41:26;;;;;;;4.22;3.00;;;20.50;99.90;;;;;;5111283;27;20084;-48
2023/06/28 10:44:03;;;;;;;5.03;2.88;;;20.60;99.90;;;;;;5110233;27;20032;-47
2023/06/28 10:46:29;;;;;;;3.00;2.13;;;20.60;99.90;;;;;;5136087;27;20027;-47
2023/06/28 10:48:56;;;;;;;2.30;1.70;;;20.60;99.90;;;;;;5121587;27;20043;-48
2023/06/28 10:51:26;;;;;;;3.38;2.47;;;20.50;99.90;;;;;;5119208;27;20058;-47
2023/06/28 10:53:55;;;;;;;3.97;2.30;;;20.50;99.90;;;;;;5113859;27;20501;-48
2023/06/28 10:56:21;;;;;;;2.20;1.58;;;20.60;99.90;;;;;;5114392;27;20087;-48
2023/06/28 10:58:54;;;;;;;2.38;1.30;;;20.50;99.90;;;;;;5079182;28;20031;-48
2023/06/28 11:01:32;;;;;;;3.28;1.95;;;20.40;99.90;;;;;;5119386;27;20028;-47
2023/06/28 11:04:21;;;;;;;3.38;2.08;;;20.50;99.90;;;;;;5123087;27;20040;-47
2023/06/28 11:06:47;;;;;;;6.35;1.90;;;20.40;99.90;;;;;;5110904;27;20477;-47
2023/06/28 11:09:19;;;;;;;3.50;1.83;;;20.50;99.90;;;;;;5117247;27;20115;-47
2023/06/28 11:11:58;;;;;;;2.08;1.77;;;20.50;99.90;;;;;;5115471;27;20043;-48
2023/06/28 11:14:26;;;;;;;2.80;1.83;;;20.60;99.90;;;;;;5115675;27;20038;-47
2023/06/28 11:17:05;;;;;;;1.92;1.48;;;20.60;99.90;;;;;;5112284;27;20073;-47
2023/06/28 11:19:31;;;;;;;1.80;1.45;;;20.60;99.90;;;;;;5111216;27;20030;-47
2023/06/28 11:21:59;;;;;;;2.95;1.70;;;20.70;99.90;;;;;;5112256;27;20044;-47
2023/06/28 11:24:43;;;;;;;4.65;1.65;;;20.80;99.90;;;;;;5096157;27;20065;-47
2023/06/28 11:27:14;;;;;;;3.20;1.63;;;20.90;99.90;;;;;;5120914;27;20028;-48
2023/06/28 11:29:59;;;;;;;2.05;1.30;;;21.10;99.90;;;;;;5090164;28;20092;-47
2023/06/28 11:32:30;;;;;;;1.98;1.30;;;21.20;99.90;;;;;;5118500;27;20031;-47
2023/06/28 11:34:58;;;;;;;4.07;1.88;;;21.20;99.90;;;;;;5089871;28;20036;-48
2023/06/28 11:37:24;;;;;;;6.68;2.08;;;21.30;99.90;;;;;;5120532;27;20094;-47
2023/06/28 11:39:51;;;;;;;4.15;2.05;;;21.40;99.90;;;;;;5080361;28;20510;-48
2023/06/28 11:42:18;;;;;;;2.33;1.60;;;21.60;99.90;;;;;;5119635;27;20618;-47
2023/06/28 11:44:46;;;;;;;3.67;1.60;;;21.70;99.90;;;;;;5116139;27;20024;-48
2023/06/28 11:47:12;;;;;;;2.25;1.52;;;21.80;99.90;;;;;;5117412;27;20064;-47
2023/06/28 11:49:39;;;;;;;3.17;1.92;;;21.90;99.90;;;;;;5118375;27;20108;-48
2023/06/28 11:52:06;;;;;;;4.55;1.95;;;;;;;;;;5112221;27;20078;-49
2023/06/28 11:54:32;;;;;;;2.15;1.63;;;;;;;;;;5085888;27;20039;-49
2023/06/28 11:57:00;;;;;;;3.05;1.70;;;;;;;;;;5116563;27;20467;-48
2023/06/28 11:59:26;;;;;;;4.88;1.50;;;;;;;;;;5113007;27;20031;-48
2023/06/28 12:02:02;;;;;;;1.88;1.50;;;23.10;99.90;;;;;;5107452;27;20378;-49
2023/06/28 12:04:28;;;;;;;3.20;1.90;;;;;;;;;;5107035;27;20126;-48
2023/06/28 12:06:53;;;;;;;5.78;1.80;;;23.50;99.90;;;;;;5128341;27;20059;-48
2023/06/28 12:09:27;;;;;;;3.38;1.60;;;23.50;99.90;;;;;;5113689;27;20454;-49
2023/06/28 12:11:57;;;;;;;2.80;1.58;;;23.50;99.90;;;;;;5111461;27;20393;-48
2023/06/28 12:14:23;;;;;;;3.65;1.80;;;;;;;;;;5109808;27;20351;-49
2023/06/28 12:16:52;;;;;;;2.65;1.48;;;23.90;99.90;;;;;;5113999;27;20027;-48
2023/06/28 12:19:18;;;;;;;1.50;1.33;;;24.10;99.90;;;;;;5116123;27;20028;-49
2023/06/28 12:21:45;;;;;;;3.22;1.60;;;24.20;99.90;;;;;;5113665;27;20742;-48
2023/06/28 12:24:17;;;;;;;4.55;1.50;;;24.00;99.90;;;;;;5108177;27;20040;-49
2023/06/28 12:26:48;;;;;;;1.98;1.45;;;;;;;;;;5119454;27;20035;-50
2023/06/28 12:29:14;;;;;;;3.15;1.48;;;;;;;;;;5118526;27;20530;-48
2023/06/28 12:31:48;;;;;;;3.75;1.55;;;;;;;;;;5110495;27;20042;-48
2023/06/28 12:34:27;;;;;;;2.03;1.23;;;;;;;;;;5114878;27;20062;-48
2023/06/28 12:36:57;;;;;;;2.40;1.38;;;;;;;;;;5106892;27;20032;-49
2023/06/28 12:39:27;;;;;;;2.50;1.10;;;;;;;;;;5126223;27;20594;-49
2023/06/28 12:42:06;;;;;;;1.38;1.20;;;;;;;;;;5119651;27;20122;-48
2023/06/28 12:44:48;;;;;;;2.60;1.40;;;;;;;;;;5105132;28;20114;-49
2023/06/28 12:47:14;;;;;;;2.25;1.40;;;;;;;;;;5113388;27;20110;-48
2023/06/28 12:49:40;;;;;;;1.45;1.35;;;;;;;;;;5110281;27;20059;-49
2023/06/28 12:52:06;;;;;;;3.08;1.30;;;;;;;;;;5063960;28;20428;-48
2023/06/28 12:54:32;;;;;;;1.38;1.17;;;;;;;;;;5119199;27;20019;-47
2023/06/28 12:57:00;;;;;;;1.50;1.10;;;;;;;;;;5117080;27;20086;-47
2023/06/28 12:59:27;;;;;;;2.25;1.20;;;;;;;;;;5078373;28;20035;-47
2023/06/28 13:01:53;;;;;;;1.45;1.33;;;;;;;;;;5112302;28;20040;-48
2023/06/28 13:04:19;;;;;;;2.80;1.10;;;;;;;;;;5109976;27;20467;-48
2023/06/28 13:06:45;;;;;;;2.13;1.30;;;;;;;;;;5115955;27;20042;-48
2023/06/28 13:09:12;;;;;;;1.95;1.40;;;;;;;;;;5121113;28;20023;-48
2023/06/28 13:11:38;;;;;;;3.03;1.25;;;;;;;;;;5116180;28;20081;-47
2023/06/28 13:14:04;;;;;;;2.55;1.30;;;;;;;;;;5051118;28;20388;-47
2023/06/28 13:16:31;;;;;;;2.55;1.30;;;24.50;99.90;;;;;;5111804;28;20023;-47
2023/06/28 13:18:56;;;;;;;2.70;1.38;;;24.50;99.90;;;;;;5108947;28;20359;-47
2023/06/28 13:21:23;;;;;;;1.83;1.30;;;;;;;;;;5119202;28;20054;-47
2023/06/28 13:23:49;;;;;;;2.63;1.50;;;;;;;;;;5107318;28;20472;-48
2023/06/28 13:26:15;;;;;;;2.80;1.25;;;;;;;;;;5117318;28;20035;-49
2023/06/28 13:28:42;;;;;;;4.22;2.03;;;;;;;;;;5047989;28;20039;-47
2023/06/28 13:31:08;;;;;;;2.47;1.60;;;;;;;;;;5115654;28;20035;-49
2023/06/28 13:33:34;;;;;;;2.30;1.60;;;26.40;99.90;;;;;;5067395;28;20027;-49
2023/06/28 13:36:00;;;;;;;3.20;1.70;;;26.30;99.90;;;;;;5107767;28;20364;-48
2023/06/28 13:38:25;;;;;;;2.47;1.65;;;26.00;99.90;;;;;;5111834;28;20068;-48
2023/06/28 13:40:51;;;;;;;2.92;1.75;;;26.00;99.90;;;;;;5079649;28;20085;-48
2023/06/28 13:43:17;;;;;;;5.50;1.67;;;26.20;99.90;;;;;;5110308;28;20096;-47
2023/06/28 13:45:42;;;;;;;3.92;1.50;;;25.70;99.90;;;;;;5063635;28;20039;-47
2023/06/28 13:48:08;;;;;;;3.58;1.42;;;25.90;99.90;;;;;;5111406;28;20047;-48
2023/06/28 13:50:34;;;;;;;2.33;1.52;;;26.20;99.90;;;;;;5084334;28;20047;-48
2023/06/28 13:53:01;;;;;;;1.75;1.20;;;26.20;99.90;;;;;;5056745;28;20077;-48
2023/06/28 13:55:27;;;;;;;2.35;1.40;;;;;;;;;;5107513;28;20054;-47
2023/06/28 13:57:53;;;;;;;2.05;1.25;;;26.20;99.90;;;;;;5054725;28;20489;-48
2023/06/28 14:00:19;;;;;;;2.33;1.50;;;25.90;99.90;;;;;;5122222;27;20036;-49
2023/06/28 14:02:45;;;;;;;2.20;1.60;;;;;;;;;;5102612;27;20047;-48
2023/06/28 14:05:11;;;;;;;2.17;1.45;;;;;;;;;;5079964;27;20502;-47